AAL2032 KPHX-KSAN
Flight info
| Callsign | AAL2032 |
|---|---|
| Flight time | N/A |
| Altitude | 28000 |
| Route | FYRBD1 MOHAK J2 HOGGZ LUCKI1 |
| Aircraft | A321/M-SDE3FGHIRWY/LB1 |
Departure
| Time | 2026-05-04 03:36 |
|---|---|
| Airport | Phoenix Sky Harbor International Airport (KPHX) |
Arrival
| Time | N/A |
|---|---|
| Airport | San Diego International Airport (KSAN) |
| Time | Latitude | Longitude | Altitude | Speed | Heading |
|---|---|---|---|---|---|
| 2026-05-04 03:27 | 33.43407 | -111.99374 | 1124 ft | 0 kts | 291° |
| 2026-05-04 03:29 | 33.43399 | -111.99348 | 1112 ft | 4 kts | 291° |
| 2026-05-04 03:29 | 33.43390 | -111.99320 | 1115 ft | 4 kts | 268° |
| 2026-05-04 03:29 | 33.43397 | -111.99307 | 1119 ft | 3 kts | 181° |
| 2026-05-04 03:30 | 33.43418 | -111.99306 | 1115 ft | 3 kts | 180° |
| 2026-05-04 03:30 | 33.43421 | -111.99306 | 1118 ft | 0 kts | 180° |
| 2026-05-04 03:33 | 33.43418 | -111.99306 | 1117 ft | 3 kts | 180° |
| 2026-05-04 03:34 | 33.43365 | -111.99307 | 1120 ft | 9 kts | 180° |
| 2026-05-04 03:34 | 33.43302 | -111.99288 | 1118 ft | 11 kts | 141° |
| 2026-05-04 03:34 | 33.43230 | -111.99250 | 1122 ft | 12 kts | 191° |
| 2026-05-04 03:35 | 33.43191 | -111.99280 | 1124 ft | 0 kts | 218° |
| 2026-05-04 03:35 | 33.43162 | -111.99311 | 1131 ft | 11 kts | 223° |
| 2026-05-04 03:35 | 33.43114 | -111.99378 | 1136 ft | 11 kts | 247° |
| 2026-05-04 03:35 | 33.43104 | -111.99568 | 1132 ft | 49 kts | 269° |
| 2026-05-04 03:36 | 33.43100 | -112.00256 | 1132 ft | 113 kts | 270° |
| 2026-05-04 03:36 | 33.43101 | -112.01413 | 1134 ft | 163 kts | 270° |
| 2026-05-04 03:36 | 33.43109 | -112.02809 | 1640 ft | 169 kts | 266° |
| 2026-05-04 03:36 | 33.43055 | -112.04231 | 2218 ft | 173 kts | 262° |
| 2026-05-04 03:37 | 33.42989 | -112.05662 | 2936 ft | 172 kts | 263° |
| 2026-05-04 03:37 | 33.42937 | -112.07123 | 3334 ft | 184 kts | 263° |
| 2026-05-04 03:37 | 33.42740 | -112.08694 | 3657 ft | 198 kts | 251° |
| 2026-05-04 03:37 | 33.42222 | -112.10258 | 3988 ft | 215 kts | 244° |
| 2026-05-04 03:38 | 33.41541 | -112.11962 | 4281 ft | 239 kts | 243° |
| 2026-05-04 03:38 | 33.40814 | -112.13832 | 4794 ft | 254 kts | 244° |
| 2026-05-04 03:38 | 33.40135 | -112.15798 | 5582 ft | 257 kts | 245° |
| 2026-05-04 03:38 | 33.39300 | -112.17689 | 6384 ft | 257 kts | 232° |
| 2026-05-04 03:39 | 33.38046 | -112.19196 | 7158 ft | 257 kts | 214° |
| 2026-05-04 03:39 | 33.36464 | -112.20218 | 7903 ft | 261 kts | 208° |
| 2026-05-04 03:39 | 33.34975 | -112.21514 | 8579 ft | 269 kts | 221° |
| 2026-05-04 03:39 | 33.33663 | -112.23088 | 9337 ft | 272 kts | 225° |
| 2026-05-04 03:40 | 33.32375 | -112.24776 | 10049 ft | 277 kts | 226° |
| 2026-05-04 03:40 | 33.31044 | -112.26510 | 10445 ft | 293 kts | 225° |
| 2026-05-04 03:40 | 33.29584 | -112.28346 | 10603 ft | 316 kts | 224° |
| 2026-05-04 03:40 | 33.28000 | -112.30271 | 10941 ft | 330 kts | 224° |
| 2026-05-04 03:41 | 33.26353 | -112.32220 | 11573 ft | 335 kts | 223° |
| 2026-05-04 03:41 | 33.24680 | -112.34165 | 12281 ft | 337 kts | 223° |
| 2026-05-04 03:41 | 33.22984 | -112.36116 | 13002 ft | 339 kts | 223° |
| 2026-05-04 03:41 | 33.21277 | -112.38073 | 13696 ft | 341 kts | 224° |
| 2026-05-04 03:42 | 33.19580 | -112.40017 | 14310 ft | 343 kts | 224° |
| 2026-05-04 03:42 | 33.17854 | -112.41991 | 14929 ft | 345 kts | 224° |
| 2026-05-04 03:42 | 33.16119 | -112.43975 | 15553 ft | 346 kts | 224° |
| 2026-05-04 03:42 | 33.14374 | -112.45972 | 16151 ft | 349 kts | 225° |
| 2026-05-04 03:43 | 33.12620 | -112.47982 | 16751 ft | 350 kts | 226° |
| 2026-05-04 03:43 | 33.10858 | -112.50003 | 17356 ft | 352 kts | 226° |
| 2026-05-04 03:43 | 33.09087 | -112.52032 | 17950 ft | 354 kts | 226° |
| 2026-05-04 03:43 | 33.07302 | -112.54076 | 18468 ft | 357 kts | 226° |
| 2026-05-04 03:44 | 33.05532 | -112.56102 | 18980 ft | 359 kts | 227° |
| 2026-05-04 03:44 | 33.03728 | -112.58166 | 19533 ft | 361 kts | 227° |
| 2026-05-04 03:44 | 33.01912 | -112.60242 | 20074 ft | 363 kts | 227° |
| 2026-05-04 03:44 | 33.00086 | -112.62328 | 20601 ft | 365 kts | 227° |
| 2026-05-04 03:45 | 32.98274 | -112.64458 | 21111 ft | 366 kts | 231° |
| 2026-05-04 03:45 | 32.96758 | -112.66870 | 21605 ft | 365 kts | 241° |
| 2026-05-04 03:45 | 32.95641 | -112.69578 | 22095 ft | 365 kts | 251° |